Terminal Aerodrome Forecast
Issued by NWS

Home | Current Version | Previous Version | Graphics & Text | Print | Product List | Glossary On
Versions: 1 2 3 4 5 6 7 8 9 10 11 12 13 14 15 16 17 18
000
FTUS43 KGRB 261100
TAFAUW
TAF
KAUW 261132Z 2612/2712 10005KT 6SM BR SCT035 BKN070
     FM262000 32004KT P6SM SCT025 BKN040
     FM270100 31004KT 6SM -SN BR SCT015 OVC030
     FM270500 31007KT P6SM SCT012 OVC020=

USA.gov is the U.S. government's official web portal to all federal, state and local government web resources and services.